sensor_id;sensor_type;location;lat;lon;timestamp;P1;durP1;ratioP1;P2;durP2;ratioP2
50517;SDS011;37075;44.084;2.962;2024-01-25T00:00:50;10.00;;;4.20;;
50517;SDS011;37075;44.084;2.962;2024-01-25T00:03:36;4.88;;;2.75;;
50517;SDS011;37075;44.084;2.962;2024-01-25T00:06:23;7.47;;;2.83;;
50517;SDS011;37075;44.084;2.962;2024-01-25T00:09:09;13.30;;;2.83;;
50517;SDS011;37075;44.084;2.962;2024-01-25T00:11:56;7.03;;;3.33;;
50517;SDS011;37075;44.084;2.962;2024-01-25T00:14:41;5.65;;;3.00;;
50517;SDS011;37075;44.084;2.962;2024-01-25T00:17:27;4.75;;;2.38;;
50517;SDS011;37075;44.084;2.962;2024-01-25T00:20:13;10.70;;;5.60;;
50517;SDS011;37075;44.084;2.962;2024-01-25T00:23:01;33.78;;;9.63;;
50517;SDS011;37075;44.084;2.962;2024-01-25T00:25:47;11.25;;;6.30;;
50517;SDS011;37075;44.084;2.962;2024-01-25T00:28:33;19.48;;;7.90;;
50517;SDS011;37075;44.084;2.962;2024-01-25T00:31:19;22.73;;;7.07;;
50517;SDS011;37075;44.084;2.962;2024-01-25T00:34:05;11.25;;;4.70;;
50517;SDS011;37075;44.084;2.962;2024-01-25T00:36:51;11.05;;;6.28;;
50517;SDS011;37075;44.084;2.962;2024-01-25T00:39:40;11.67;;;7.23;;
50517;SDS011;37075;44.084;2.962;2024-01-25T00:42:26;15.52;;;5.13;;
50517;SDS011;37075;44.084;2.962;2024-01-25T00:45:14;15.13;;;4.40;;
50517;SDS011;37075;44.084;2.962;2024-01-25T00:48:01;9.73;;;4.82;;
50517;SDS011;37075;44.084;2.962;2024-01-25T00:50:47;10.55;;;3.50;;
50517;SDS011;37075;44.084;2.962;2024-01-25T00:53:34;11.93;;;3.80;;
50517;SDS011;37075;44.084;2.962;2024-01-25T00:56:22;9.75;;;4.35;;
50517;SDS011;37075;44.084;2.962;2024-01-25T00:59:09;27.08;;;9.27;;
50517;SDS011;37075;44.084;2.962;2024-01-25T01:01:55;23.08;;;6.85;;
50517;SDS011;37075;44.084;2.962;2024-01-25T01:04:44;16.85;;;6.05;;
50517;SDS011;37075;44.084;2.962;2024-01-25T01:07:31;13.90;;;5.60;;
50517;SDS011;37075;44.084;2.962;2024-01-25T01:10:18;16.58;;;4.57;;
50517;SDS011;37075;44.084;2.962;2024-01-25T01:13:05;9.68;;;5.72;;
50517;SDS011;37075;44.084;2.962;2024-01-25T01:15:51;8.90;;;4.97;;
50517;SDS011;37075;44.084;2.962;2024-01-25T01:18:37;7.68;;;4.57;;
50517;SDS011;37075;44.084;2.962;2024-01-25T01:21:23;9.85;;;6.05;;
50517;SDS011;37075;44.084;2.962;2024-01-25T01:24:09;13.60;;;5.28;;
50517;SDS011;37075;44.084;2.962;2024-01-25T01:26:55;17.55;;;6.75;;
50517;SDS011;37075;44.084;2.962;2024-01-25T01:29:43;30.58;;;8.02;;
50517;SDS011;37075;44.084;2.962;2024-01-25T01:32:28;8.23;;;4.70;;
50517;SDS011;37075;44.084;2.962;2024-01-25T01:35:14;9.52;;;4.40;;
50517;SDS011;37075;44.084;2.962;2024-01-25T01:38:00;7.50;;;4.53;;
50517;SDS011;37075;44.084;2.962;2024-01-25T01:40:46;8.40;;;5.45;;
50517;SDS011;37075;44.084;2.962;2024-01-25T01:43:32;8.68;;;4.50;;
50517;SDS011;37075;44.084;2.962;2024-01-25T01:46:20;7.95;;;4.03;;
50517;SDS011;37075;44.084;2.962;2024-01-25T01:52:03;8.85;;;5.15;;
50517;SDS011;37075;44.084;2.962;2024-01-25T01:54:51;9.45;;;4.05;;
50517;SDS011;37075;44.084;2.962;2024-01-25T01:57:37;9.82;;;4.70;;
50517;SDS011;37075;44.084;2.962;2024-01-25T02:00:24;9.00;;;4.55;;
50517;SDS011;37075;44.084;2.962;2024-01-25T02:03:19;5.93;;;3.15;;
50517;SDS011;37075;44.084;2.962;2024-01-25T02:06:06;6.20;;;4.13;;
50517;SDS011;37075;44.084;2.962;2024-01-25T02:08:52;5.60;;;2.67;;
50517;SDS011;37075;44.084;2.962;2024-01-25T02:11:40;7.43;;;3.38;;
50517;SDS011;37075;44.084;2.962;2024-01-25T02:14:27;6.95;;;3.45;;
50517;SDS011;37075;44.084;2.962;2024-01-25T02:17:12;9.27;;;5.22;;
50517;SDS011;37075;44.084;2.962;2024-01-25T02:20:00;4.82;;;2.60;;
50517;SDS011;37075;44.084;2.962;2024-01-25T02:22:49;7.40;;;4.18;;
50517;SDS011;37075;44.084;2.962;2024-01-25T02:25:35;8.20;;;3.78;;
50517;SDS011;37075;44.084;2.962;2024-01-25T02:28:21;19.17;;;5.63;;
50517;SDS011;37075;44.084;2.962;2024-01-25T02:31:07;6.68;;;3.67;;
50517;SDS011;37075;44.084;2.962;2024-01-25T02:33:53;15.77;;;4.82;;
50517;SDS011;37075;44.084;2.962;2024-01-25T02:36:38;9.80;;;5.32;;
50517;SDS011;37075;44.084;2.962;2024-01-25T02:39:26;7.53;;;2.85;;
50517;SDS011;37075;44.084;2.962;2024-01-25T02:42:12;4.90;;;2.10;;
50517;SDS011;37075;44.084;2.962;2024-01-25T02:45:01;4.93;;;2.08;;
50517;SDS011;37075;44.084;2.962;2024-01-25T02:47:47;4.43;;;1.98;;
50517;SDS011;37075;44.084;2.962;2024-01-25T02:50:33;4.40;;;2.38;;
50517;SDS011;37075;44.084;2.962;2024-01-25T02:53:19;6.53;;;2.55;;
50517;SDS011;37075;44.084;2.962;2024-01-25T02:56:06;14.70;;;5.57;;
50517;SDS011;37075;44.084;2.962;2024-01-25T02:58:52;7.93;;;3.67;;
50517;SDS011;37075;44.084;2.962;2024-01-25T03:01:39;6.53;;;3.08;;
50517;SDS011;37075;44.084;2.962;2024-01-25T03:07:12;6.35;;;3.55;;
50517;SDS011;37075;44.084;2.962;2024-01-25T03:09:58;4.95;;;2.95;;
50517;SDS011;37075;44.084;2.962;2024-01-25T03:12:45;4.78;;;2.75;;
50517;SDS011;37075;44.084;2.962;2024-01-25T03:15:32;4.72;;;2.63;;
50517;SDS011;37075;44.084;2.962;2024-01-25T03:18:17;6.40;;;2.08;;
50517;SDS011;37075;44.084;2.962;2024-01-25T03:21:03;8.30;;;3.55;;
50517;SDS011;37075;44.084;2.962;2024-01-25T03:23:50;3.22;;;2.03;;
50517;SDS011;37075;44.084;2.962;2024-01-25T03:26:37;5.05;;;1.88;;
50517;SDS011;37075;44.084;2.962;2024-01-25T03:29:25;2.83;;;1.42;;
50517;SDS011;37075;44.084;2.962;2024-01-25T03:32:11;2.17;;;1.45;;
50517;SDS011;37075;44.084;2.962;2024-01-25T03:34:57;7.00;;;1.70;;
50517;SDS011;37075;44.084;2.962;2024-01-25T03:37:43;11.52;;;1.45;;
50517;SDS011;37075;44.084;2.962;2024-01-25T03:40:29;5.05;;;1.20;;
50517;SDS011;37075;44.084;2.962;2024-01-25T03:43:15;2.95;;;1.00;;
50517;SDS011;37075;44.084;2.962;2024-01-25T03:46:02;2.75;;;0.95;;
50517;SDS011;37075;44.084;2.962;2024-01-25T03:48:49;2.75;;;1.10;;
50517;SDS011;37075;44.084;2.962;2024-01-25T03:51:35;15.00;;;2.58;;
50517;SDS011;37075;44.084;2.962;2024-01-25T03:54:21;7.95;;;1.00;;
50517;SDS011;37075;44.084;2.962;2024-01-25T03:57:07;8.90;;;1.25;;
50517;SDS011;37075;44.084;2.962;2024-01-25T03:59:53;2.30;;;1.10;;
50517;SDS011;37075;44.084;2.962;2024-01-25T04:02:40;2.67;;;0.90;;
50517;SDS011;37075;44.084;2.962;2024-01-25T04:05:26;3.38;;;1.23;;
50517;SDS011;37075;44.084;2.962;2024-01-25T04:08:12;6.07;;;0.88;;
50517;SDS011;37075;44.084;2.962;2024-01-25T04:10:58;2.10;;;0.75;;
50517;SDS011;37075;44.084;2.962;2024-01-25T04:13:44;4.47;;;1.02;;
50517;SDS011;37075;44.084;2.962;2024-01-25T04:16:29;3.45;;;0.90;;
50517;SDS011;37075;44.084;2.962;2024-01-25T04:19:17;7.03;;;1.85;;
50517;SDS011;37075;44.084;2.962;2024-01-25T04:22:03;10.25;;;1.67;;
50517;SDS011;37075;44.084;2.962;2024-01-25T04:24:50;6.13;;;0.82;;
50517;SDS011;37075;44.084;2.962;2024-01-25T04:27:36;1.40;;;0.63;;
50517;SDS011;37075;44.084;2.962;2024-01-25T04:30:23;1.30;;;0.75;;
50517;SDS011;37075;44.084;2.962;2024-01-25T04:33:09;0.82;;;0.70;;
50517;SDS011;37075;44.084;2.962;2024-01-25T04:35:56;14.68;;;1.75;;
50517;SDS011;37075;44.084;2.962;2024-01-25T04:38:42;0.88;;;0.32;;
50517;SDS011;37075;44.084;2.962;2024-01-25T04:41:28;2.53;;;1.35;;
50517;SDS011;37075;44.084;2.962;2024-01-25T04:44:14;11.57;;;2.45;;
50517;SDS011;37075;44.084;2.962;2024-01-25T04:46:59;2.80;;;0.93;;
50517;SDS011;37075;44.084;2.962;2024-01-25T04:49:45;1.77;;;0.73;;
50517;SDS011;37075;44.084;2.962;2024-01-25T04:52:32;3.40;;;1.17;;
50517;SDS011;37075;44.084;2.962;2024-01-25T04:55:18;0.70;;;0.70;;
50517;SDS011;37075;44.084;2.962;2024-01-25T04:58:05;1.77;;;0.80;;
50517;SDS011;37075;44.084;2.962;2024-01-25T05:00:50;1.35;;;0.68;;
50517;SDS011;37075;44.084;2.962;2024-01-25T05:03:37;2.05;;;1.02;;
50517;SDS011;37075;44.084;2.962;2024-01-25T05:06:23;1.40;;;0.52;;
50517;SDS011;37075;44.084;2.962;2024-01-25T05:09:10;25.95;;;11.98;;
50517;SDS011;37075;44.084;2.962;2024-01-25T05:11:56;21.98;;;5.90;;
50517;SDS011;37075;44.084;2.962;2024-01-25T05:14:44;9.23;;;5.72;;
50517;SDS011;37075;44.084;2.962;2024-01-25T05:17:30;10.68;;;5.05;;
50517;SDS011;37075;44.084;2.962;2024-01-25T05:20:16;12.85;;;3.92;;
50517;SDS011;37075;44.084;2.962;2024-01-25T05:23:02;5.22;;;3.35;;
50517;SDS011;37075;44.084;2.962;2024-01-25T05:25:50;4.20;;;1.37;;
50517;SDS011;37075;44.084;2.962;2024-01-25T05:28:36;4.07;;;3.00;;
50517;SDS011;37075;44.084;2.962;2024-01-25T05:31:22;7.95;;;2.50;;
50517;SDS011;37075;44.084;2.962;2024-01-25T05:34:08;6.85;;;2.42;;
50517;SDS011;37075;44.084;2.962;2024-01-25T05:36:54;6.43;;;2.78;;
50517;SDS011;37075;44.084;2.962;2024-01-25T05:39:40;5.70;;;1.63;;
50517;SDS011;37075;44.084;2.962;2024-01-25T05:42:27;7.75;;;1.75;;
50517;SDS011;37075;44.084;2.962;2024-01-25T05:45:13;6.65;;;3.08;;
50517;SDS011;37075;44.084;2.962;2024-01-25T05:47:59;3.45;;;1.90;;
50517;SDS011;37075;44.084;2.962;2024-01-25T05:50:45;3.55;;;1.50;;
50517;SDS011;37075;44.084;2.962;2024-01-25T05:53:31;3.30;;;1.67;;
50517;SDS011;37075;44.084;2.962;2024-01-25T05:56:17;9.90;;;2.70;;
50517;SDS011;37075;44.084;2.962;2024-01-25T05:59:04;5.78;;;2.40;;
50517;SDS011;37075;44.084;2.962;2024-01-25T06:01:50;5.53;;;1.48;;
50517;SDS011;37075;44.084;2.962;2024-01-25T06:04:36;4.63;;;1.23;;
50517;SDS011;37075;44.084;2.962;2024-01-25T06:07:22;1.77;;;1.10;;
50517;SDS011;37075;44.084;2.962;2024-01-25T06:10:09;3.80;;;2.47;;
50517;SDS011;37075;44.084;2.962;2024-01-25T06:12:55;7.10;;;3.03;;
50517;SDS011;37075;44.084;2.962;2024-01-25T06:15:43;4.05;;;2.30;;
50517;SDS011;37075;44.084;2.962;2024-01-25T06:18:29;6.97;;;3.17;;
50517;SDS011;37075;44.084;2.962;2024-01-25T06:21:14;6.13;;;2.63;;
50517;SDS011;37075;44.084;2.962;2024-01-25T06:24:00;11.43;;;5.35;;
50517;SDS011;37075;44.084;2.962;2024-01-25T06:26:46;10.07;;;3.50;;
50517;SDS011;37075;44.084;2.962;2024-01-25T06:29:32;8.45;;;2.20;;
50517;SDS011;37075;44.084;2.962;2024-01-25T06:32:20;4.13;;;2.03;;
50517;SDS011;37075;44.084;2.962;2024-01-25T06:35:07;7.28;;;2.90;;
50517;SDS011;37075;44.084;2.962;2024-01-25T06:37:54;6.05;;;1.75;;
50517;SDS011;37075;44.084;2.962;2024-01-25T06:40:40;6.57;;;2.60;;
50517;SDS011;37075;44.084;2.962;2024-01-25T06:43:26;10.93;;;1.55;;
50517;SDS011;37075;44.084;2.962;2024-01-25T06:46:11;6.05;;;2.00;;
50517;SDS011;37075;44.084;2.962;2024-01-25T06:48:59;4.93;;;2.50;;
50517;SDS011;37075;44.084;2.962;2024-01-25T06:51:45;3.67;;;1.87;;
50517;SDS011;37075;44.084;2.962;2024-01-25T06:54:31;5.60;;;2.17;;
50517;SDS011;37075;44.084;2.962;2024-01-25T06:57:17;3.55;;;1.30;;
50517;SDS011;37075;44.084;2.962;2024-01-25T07:00:03;6.32;;;1.90;;
50517;SDS011;37075;44.084;2.962;2024-01-25T07:02:50;1.02;;;0.88;;
50517;SDS011;37075;44.084;2.962;2024-01-25T07:05:37;1.80;;;1.00;;
50517;SDS011;37075;44.084;2.962;2024-01-25T07:08:23;1.73;;;1.40;;
50517;SDS011;37075;44.084;2.962;2024-01-25T07:11:09;2.17;;;1.15;;
50517;SDS011;37075;44.084;2.962;2024-01-25T07:13:56;2.42;;;1.17;;
50517;SDS011;37075;44.084;2.962;2024-01-25T07:16:41;1.52;;;1.33;;
50517;SDS011;37075;44.084;2.962;2024-01-25T07:19:27;1.95;;;1.65;;
50517;SDS011;37075;44.084;2.962;2024-01-25T07:22:15;10.82;;;2.42;;
50517;SDS011;37075;44.084;2.962;2024-01-25T07:25:03;2.55;;;1.48;;
50517;SDS011;37075;44.084;2.962;2024-01-25T07:27:50;1.70;;;0.90;;
50517;SDS011;37075;44.084;2.962;2024-01-25T07:30:35;2.10;;;1.35;;
50517;SDS011;37075;44.084;2.962;2024-01-25T07:33:22;4.20;;;1.98;;
50517;SDS011;37075;44.084;2.962;2024-01-25T07:36:10;1.67;;;1.25;;
50517;SDS011;37075;44.084;2.962;2024-01-25T07:38:58;4.45;;;1.80;;
50517;SDS011;37075;44.084;2.962;2024-01-25T07:41:44;2.42;;;0.95;;
50517;SDS011;37075;44.084;2.962;2024-01-25T07:44:30;1.85;;;0.98;;
50517;SDS011;37075;44.084;2.962;2024-01-25T07:47:15;1.45;;;1.15;;
50517;SDS011;37075;44.084;2.962;2024-01-25T07:50:01;3.50;;;1.40;;
50517;SDS011;37075;44.084;2.962;2024-01-25T07:52:48;3.17;;;1.67;;
50517;SDS011;37075;44.084;2.962;2024-01-25T07:55:36;1.70;;;1.10;;
50517;SDS011;37075;44.084;2.962;2024-01-25T07:58:22;2.33;;;1.37;;
50517;SDS011;37075;44.084;2.962;2024-01-25T08:01:07;1.70;;;0.98;;
50517;SDS011;37075;44.084;2.962;2024-01-25T08:06:42;1.85;;;0.75;;
50517;SDS011;37075;44.084;2.962;2024-01-25T08:09:28;2.97;;;1.38;;
50517;SDS011;37075;44.084;2.962;2024-01-25T08:12:15;2.45;;;1.25;;
50517;SDS011;37075;44.084;2.962;2024-01-25T08:15:02;1.80;;;0.98;;
50517;SDS011;37075;44.084;2.962;2024-01-25T08:17:48;2.38;;;1.30;;
50517;SDS011;37075;44.084;2.962;2024-01-25T08:20:35;1.52;;;0.82;;
50517;SDS011;37075;44.084;2.962;2024-01-25T08:23:22;2.45;;;1.13;;
50517;SDS011;37075;44.084;2.962;2024-01-25T08:26:08;3.60;;;0.93;;
50517;SDS011;37075;44.084;2.962;2024-01-25T08:28:58;2.33;;;1.70;;
50517;SDS011;37075;44.084;2.962;2024-01-25T08:31:44;2.45;;;1.05;;
50517;SDS011;37075;44.084;2.962;2024-01-25T08:34:30;1.65;;;1.08;;
50517;SDS011;37075;44.084;2.962;2024-01-25T08:37:17;1.98;;;0.90;;
50517;SDS011;37075;44.084;2.962;2024-01-25T08:40:03;3.13;;;1.20;;
50517;SDS011;37075;44.084;2.962;2024-01-25T08:42:50;1.45;;;1.02;;
50517;SDS011;37075;44.084;2.962;2024-01-25T08:45:37;1.98;;;0.98;;
50517;SDS011;37075;44.084;2.962;2024-01-25T08:48:23;2.83;;;1.27;;
50517;SDS011;37075;44.084;2.962;2024-01-25T08:51:10;2.28;;;1.20;;
50517;SDS011;37075;44.084;2.962;2024-01-25T08:53:56;5.22;;;1.85;;
50517;SDS011;37075;44.084;2.962;2024-01-25T08:56:42;3.22;;;1.73;;
50517;SDS011;37075;44.084;2.962;2024-01-25T08:59:28;2.15;;;1.30;;
50517;SDS011;37075;44.084;2.962;2024-01-25T09:02:18;3.40;;;1.83;;
50517;SDS011;37075;44.084;2.962;2024-01-25T09:05:07;6.55;;;1.10;;
50517;SDS011;37075;44.084;2.962;2024-01-25T09:07:54;3.25;;;1.80;;
50517;SDS011;37075;44.084;2.962;2024-01-25T09:10:40;1.85;;;1.25;;
50517;SDS011;37075;44.084;2.962;2024-01-25T09:13:27;2.83;;;0.82;;
50517;SDS011;37075;44.084;2.962;2024-01-25T09:16:15;2.95;;;1.50;;
50517;SDS011;37075;44.084;2.962;2024-01-25T09:19:02;3.30;;;1.25;;
50517;SDS011;37075;44.084;2.962;2024-01-25T09:21:48;2.42;;;2.00;;
50517;SDS011;37075;44.084;2.962;2024-01-25T09:24:34;4.68;;;1.58;;
50517;SDS011;37075;44.084;2.962;2024-01-25T09:27:21;5.40;;;3.10;;
50517;SDS011;37075;44.084;2.962;2024-01-25T09:30:07;4.68;;;1.73;;
50517;SDS011;37075;44.084;2.962;2024-01-25T09:32:54;8.25;;;1.35;;
50517;SDS011;37075;44.084;2.962;2024-01-25T09:35:42;5.72;;;2.60;;
50517;SDS011;37075;44.084;2.962;2024-01-25T09:38:31;3.33;;;1.90;;
50517;SDS011;37075;44.084;2.962;2024-01-25T09:41:16;6.25;;;2.42;;
50517;SDS011;37075;44.084;2.962;2024-01-25T09:44:03;3.13;;;1.17;;
50517;SDS011;37075;44.084;2.962;2024-01-25T09:46:50;2.90;;;1.00;;
50517;SDS011;37075;44.084;2.962;2024-01-25T09:49:36;7.03;;;2.77;;
50517;SDS011;37075;44.084;2.962;2024-01-25T09:52:24;3.70;;;1.00;;
50517;SDS011;37075;44.084;2.962;2024-01-25T09:55:11;2.38;;;2.00;;
50517;SDS011;37075;44.084;2.962;2024-01-25T09:57:59;3.60;;;1.20;;
50517;SDS011;37075;44.084;2.962;2024-01-25T10:00:46;1.38;;;0.75;;
50517;SDS011;37075;44.084;2.962;2024-01-25T10:03:32;2.58;;;1.50;;
50517;SDS011;37075;44.084;2.962;2024-01-25T10:06:19;1.35;;;0.88;;
50517;SDS011;37075;44.084;2.962;2024-01-25T10:09:06;2.15;;;1.63;;
50517;SDS011;37075;44.084;2.962;2024-01-25T10:11:54;1.38;;;0.73;;
50517;SDS011;37075;44.084;2.962;2024-01-25T10:14:39;2.63;;;1.10;;
50517;SDS011;37075;44.084;2.962;2024-01-25T10:17:25;3.70;;;2.30;;
50517;SDS011;37075;44.084;2.962;2024-01-25T10:20:13;2.80;;;1.38;;
50517;SDS011;37075;44.084;2.962;2024-01-25T10:22:59;1.67;;;1.27;;
50517;SDS011;37075;44.084;2.962;2024-01-25T10:25:46;1.63;;;0.98;;
50517;SDS011;37075;44.084;2.962;2024-01-25T10:28:32;0.40;;;0.30;;
50517;SDS011;37075;44.084;2.962;2024-01-25T10:31:18;2.25;;;0.93;;
50517;SDS011;37075;44.084;2.962;2024-01-25T10:34:04;1.38;;;1.08;;
50517;SDS011;37075;44.084;2.962;2024-01-25T10:36:51;2.20;;;0.93;;
50517;SDS011;37075;44.084;2.962;2024-01-25T10:39:37;2.42;;;1.42;;
50517;SDS011;37075;44.084;2.962;2024-01-25T10:42:25;4.40;;;1.65;;
50517;SDS011;37075;44.084;2.962;2024-01-25T10:45:11;2.47;;;1.35;;
50517;SDS011;37075;44.084;2.962;2024-01-25T10:47:58;1.70;;;1.33;;
50517;SDS011;37075;44.084;2.962;2024-01-25T10:50:45;0.70;;;0.70;;
50517;SDS011;37075;44.084;2.962;2024-01-25T10:53:32;1.27;;;1.13;;
50517;SDS011;37075;44.084;2.962;2024-01-25T10:56:19;0.75;;;0.47;;
50517;SDS011;37075;44.084;2.962;2024-01-25T10:59:06;1.52;;;0.98;;
50517;SDS011;37075;44.084;2.962;2024-01-25T11:01:54;1.73;;;0.82;;
50517;SDS011;37075;44.084;2.962;2024-01-25T11:04:40;1.83;;;0.88;;
50517;SDS011;37075;44.084;2.962;2024-01-25T11:07:26;1.50;;;1.05;;
50517;SDS011;37075;44.084;2.962;2024-01-25T11:10:16;2.95;;;1.33;;
50517;SDS011;37075;44.084;2.962;2024-01-25T11:13:03;1.15;;;0.50;;
50517;SDS011;37075;44.084;2.962;2024-01-25T11:15:51;1.90;;;0.98;;
50517;SDS011;37075;44.084;2.962;2024-01-25T11:18:46;1.25;;;0.93;;
50517;SDS011;37075;44.084;2.962;2024-01-25T11:21:40;0.90;;;0.70;;
50517;SDS011;37075;44.084;2.962;2024-01-25T11:24:27;0.50;;;0.47;;
50517;SDS011;37075;44.084;2.962;2024-01-25T11:27:14;1.00;;;0.68;;
50517;SDS011;37075;44.084;2.962;2024-01-25T11:30:00;2.65;;;1.27;;
50517;SDS011;37075;44.084;2.962;2024-01-25T11:32:47;1.30;;;0.98;;
50517;SDS011;37075;44.084;2.962;2024-01-25T11:35:34;3.10;;;1.02;;
50517;SDS011;37075;44.084;2.962;2024-01-25T11:38:20;1.52;;;1.02;;
50517;SDS011;37075;44.084;2.962;2024-01-25T11:41:06;2.13;;;1.27;;
50517;SDS011;37075;44.084;2.962;2024-01-25T11:43:53;2.08;;;0.95;;
50517;SDS011;37075;44.084;2.962;2024-01-25T11:46:39;4.22;;;1.15;;
50517;SDS011;37075;44.084;2.962;2024-01-25T11:49:26;4.68;;;1.58;;
50517;SDS011;37075;44.084;2.962;2024-01-25T11:52:12;2.27;;;1.20;;
50517;SDS011;37075;44.084;2.962;2024-01-25T11:54:59;0.85;;;0.73;;
50517;SDS011;37075;44.084;2.962;2024-01-25T11:57:47;1.75;;;1.05;;
50517;SDS011;37075;44.084;2.962;2024-01-25T12:00:33;0.98;;;0.45;;
50517;SDS011;37075;44.084;2.962;2024-01-25T12:03:19;1.02;;;0.80;;
50517;SDS011;37075;44.084;2.962;2024-01-25T12:06:07;2.05;;;1.20;;
50517;SDS011;37075;44.084;2.962;2024-01-25T12:11:40;1.42;;;0.70;;
50517;SDS011;37075;44.084;2.962;2024-01-25T12:14:27;1.17;;;0.82;;
50517;SDS011;37075;44.084;2.962;2024-01-25T12:17:13;1.70;;;0.75;;
50517;SDS011;37075;44.084;2.962;2024-01-25T12:19:59;1.70;;;0.68;;
50517;SDS011;37075;44.084;2.962;2024-01-25T12:22:49;1.33;;;1.02;;
50517;SDS011;37075;44.084;2.962;2024-01-25T12:25:38;1.52;;;1.13;;
50517;SDS011;37075;44.084;2.962;2024-01-25T12:28:25;1.15;;;0.80;;
50517;SDS011;37075;44.084;2.962;2024-01-25T12:31:12;2.10;;;1.15;;
50517;SDS011;37075;44.084;2.962;2024-01-25T12:33:58;1.48;;;1.13;;
50517;SDS011;37075;44.084;2.962;2024-01-25T12:36:45;2.90;;;0.98;;
50517;SDS011;37075;44.084;2.962;2024-01-25T12:39:32;1.25;;;0.95;;
50517;SDS011;37075;44.084;2.962;2024-01-25T12:42:19;0.32;;;0.30;;
50517;SDS011;37075;44.084;2.962;2024-01-25T12:45:05;2.38;;;0.70;;
50517;SDS011;37075;44.084;2.962;2024-01-25T12:47:52;1.85;;;0.55;;
50517;SDS011;37075;44.084;2.962;2024-01-25T12:50:38;0.50;;;0.50;;
50517;SDS011;37075;44.084;2.962;2024-01-25T12:53:24;0.40;;;0.30;;
50517;SDS011;37075;44.084;2.962;2024-01-25T12:56:12;0.30;;;0.28;;
50517;SDS011;37075;44.084;2.962;2024-01-25T12:58:58;0.98;;;0.65;;
50517;SDS011;37075;44.084;2.962;2024-01-25T13:01:44;2.55;;;0.63;;
50517;SDS011;37075;44.084;2.962;2024-01-25T13:04:30;0.70;;;0.60;;
50517;SDS011;37075;44.084;2.962;2024-01-25T13:07:16;1.45;;;0.90;;
50517;SDS011;37075;44.084;2.962;2024-01-25T13:10:02;4.18;;;0.40;;
50517;SDS011;37075;44.084;2.962;2024-01-25T13:12:50;2.00;;;0.60;;
50517;SDS011;37075;44.084;2.962;2024-01-25T13:15:36;0.30;;;0.30;;
50517;SDS011;37075;44.084;2.962;2024-01-25T13:18:22;0.77;;;0.65;;
50517;SDS011;37075;44.084;2.962;2024-01-25T13:21:08;1.13;;;0.30;;
50517;SDS011;37075;44.084;2.962;2024-01-25T13:23:54;1.02;;;0.60;;
50517;SDS011;37075;44.084;2.962;2024-01-25T13:26:39;0.60;;;0.45;;
50517;SDS011;37075;44.084;2.962;2024-01-25T13:29:27;1.30;;;0.60;;
50517;SDS011;37075;44.084;2.962;2024-01-25T13:32:12;0.40;;;0.37;;
50517;SDS011;37075;44.084;2.962;2024-01-25T13:34:59;1.40;;;0.47;;
50517;SDS011;37075;44.084;2.962;2024-01-25T13:37:45;0.85;;;0.30;;
50517;SDS011;37075;44.084;2.962;2024-01-25T13:40:30;1.35;;;0.75;;
50517;SDS011;37075;44.084;2.962;2024-01-25T13:43:16;2.78;;;0.88;;
50517;SDS011;37075;44.084;2.962;2024-01-25T13:46:04;4.78;;;1.20;;
50517;SDS011;37075;44.084;2.962;2024-01-25T13:48:50;3.90;;;1.33;;
50517;SDS011;37075;44.084;2.962;2024-01-25T13:51:36;1.50;;;1.02;;
50517;SDS011;37075;44.084;2.962;2024-01-25T13:54:22;1.52;;;0.93;;
50517;SDS011;37075;44.084;2.962;2024-01-25T13:57:07;0.73;;;0.52;;
50517;SDS011;37075;44.084;2.962;2024-01-25T13:59:53;1.63;;;0.95;;
50517;SDS011;37075;44.084;2.962;2024-01-25T14:02:40;3.17;;;1.25;;
50517;SDS011;37075;44.084;2.962;2024-01-25T14:05:29;1.48;;;0.82;;
50517;SDS011;37075;44.084;2.962;2024-01-25T14:08:15;1.30;;;1.13;;
50517;SDS011;37075;44.084;2.962;2024-01-25T14:11:01;5.13;;;1.52;;
50517;SDS011;37075;44.084;2.962;2024-01-25T14:13:47;2.50;;;1.05;;
50517;SDS011;37075;44.084;2.962;2024-01-25T14:16:33;3.13;;;1.30;;
50517;SDS011;37075;44.084;2.962;2024-01-25T14:19:21;1.45;;;0.80;;
50517;SDS011;37075;44.084;2.962;2024-01-25T14:22:07;4.53;;;1.77;;
50517;SDS011;37075;44.084;2.962;2024-01-25T14:24:53;3.17;;;1.17;;
50517;SDS011;37075;44.084;2.962;2024-01-25T14:27:39;3.33;;;1.65;;
50517;SDS011;37075;44.084;2.962;2024-01-25T14:30:25;2.65;;;1.52;;
50517;SDS011;37075;44.084;2.962;2024-01-25T14:33:11;6.25;;;2.28;;
50517;SDS011;37075;44.084;2.962;2024-01-25T14:35:59;2.30;;;0.60;;
50517;SDS011;37075;44.084;2.962;2024-01-25T14:38:45;5.03;;;1.05;;
50517;SDS011;37075;44.084;2.962;2024-01-25T14:41:31;1.85;;;1.38;;
50517;SDS011;37075;44.084;2.962;2024-01-25T14:44:17;2.42;;;1.13;;
50517;SDS011;37075;44.084;2.962;2024-01-25T14:47:04;3.30;;;1.00;;
50517;SDS011;37075;44.084;2.962;2024-01-25T14:49:50;2.30;;;1.70;;
50517;SDS011;37075;44.084;2.962;2024-01-25T14:52:37;2.17;;;0.95;;
50517;SDS011;37075;44.084;2.962;2024-01-25T14:55:24;1.60;;;0.80;;
50517;SDS011;37075;44.084;2.962;2024-01-25T14:58:09;3.17;;;1.55;;
50517;SDS011;37075;44.084;2.962;2024-01-25T15:00:55;2.83;;;0.90;;
50517;SDS011;37075;44.084;2.962;2024-01-25T15:03:41;2.55;;;1.13;;
50517;SDS011;37075;44.084;2.962;2024-01-25T15:06:27;2.00;;;1.00;;
50517;SDS011;37075;44.084;2.962;2024-01-25T15:09:14;1.60;;;0.70;;
50517;SDS011;37075;44.084;2.962;2024-01-25T15:12:00;1.25;;;0.75;;
50517;SDS011;37075;44.084;2.962;2024-01-25T15:14:46;6.57;;;1.88;;
50517;SDS011;37075;44.084;2.962;2024-01-25T15:17:32;1.10;;;0.90;;
50517;SDS011;37075;44.084;2.962;2024-01-25T15:20:18;2.63;;;1.13;;
50517;SDS011;37075;44.084;2.962;2024-01-25T15:23:04;2.45;;;1.55;;
50517;SDS011;37075;44.084;2.962;2024-01-25T15:25:53;2.88;;;1.25;;
50517;SDS011;37075;44.084;2.962;2024-01-25T15:28:39;4.47;;;0.90;;
50517;SDS011;37075;44.084;2.962;2024-01-25T15:31:25;6.82;;;1.45;;
50517;SDS011;37075;44.084;2.962;2024-01-25T15:34:11;4.18;;;0.98;;
50517;SDS011;37075;44.084;2.962;2024-01-25T15:36:57;1.90;;;1.02;;
50517;SDS011;37075;44.084;2.962;2024-01-25T15:39:43;3.90;;;0.73;;
50517;SDS011;37075;44.084;2.962;2024-01-25T15:42:31;3.42;;;1.35;;
50517;SDS011;37075;44.084;2.962;2024-01-25T15:48:03;1.13;;;0.93;;
50517;SDS011;37075;44.084;2.962;2024-01-25T15:50:50;2.38;;;0.90;;
50517;SDS011;37075;44.084;2.962;2024-01-25T15:53:36;5.22;;;1.45;;
50517;SDS011;37075;44.084;2.962;2024-01-25T15:56:22;1.40;;;0.80;;
50517;SDS011;37075;44.084;2.962;2024-01-25T15:59:09;1.38;;;0.75;;
50517;SDS011;37075;44.084;2.962;2024-01-25T16:01:55;1.20;;;0.68;;
50517;SDS011;37075;44.084;2.962;2024-01-25T16:04:41;1.55;;;0.82;;
50517;SDS011;37075;44.084;2.962;2024-01-25T16:07:27;2.33;;;0.80;;
50517;SDS011;37075;44.084;2.962;2024-01-25T16:10:13;7.38;;;1.27;;
50517;SDS011;37075;44.084;2.962;2024-01-25T16:12:59;3.50;;;1.02;;
50517;SDS011;37075;44.084;2.962;2024-01-25T16:15:46;1.95;;;0.82;;
50517;SDS011;37075;44.084;2.962;2024-01-25T16:18:32;3.42;;;0.93;;
50517;SDS011;37075;44.084;2.962;2024-01-25T16:21:18;5.70;;;0.75;;
50517;SDS011;37075;44.084;2.962;2024-01-25T16:24:04;4.55;;;0.73;;
50517;SDS011;37075;44.084;2.962;2024-01-25T16:26:51;2.73;;;1.20;;
50517;SDS011;37075;44.084;2.962;2024-01-25T16:29:37;1.70;;;0.88;;
50517;SDS011;37075;44.084;2.962;2024-01-25T16:32:24;2.75;;;0.80;;
50517;SDS011;37075;44.084;2.962;2024-01-25T16:35:10;1.60;;;0.82;;
50517;SDS011;37075;44.084;2.962;2024-01-25T16:37:56;5.03;;;1.77;;
50517;SDS011;37075;44.084;2.962;2024-01-25T16:40:42;1.92;;;0.45;;
50517;SDS011;37075;44.084;2.962;2024-01-25T16:43:28;0.90;;;0.57;;
50517;SDS011;37075;44.084;2.962;2024-01-25T16:46:15;2.90;;;0.38;;
50517;SDS011;37075;44.084;2.962;2024-01-25T16:49:03;0.20;;;0.20;;
50517;SDS011;37075;44.084;2.962;2024-01-25T16:51:50;0.47;;;0.30;;
50517;SDS011;37075;44.084;2.962;2024-01-25T16:54:36;3.53;;;0.20;;